Time;durP1;ratioP1;P1;durP2;ratioP2;P2;SDS_P1;SDS_P2;PMS_P1;PMS_P2;Temp;Humidity;BMP_temperature;BMP_pressure;BME280_temperature;BME280_humidity;BME280_pressure;Samples;Min_cycle;Max_cycle;Signal;HPM_P1;HPM_P2
2021/09/28 00:01:15;;;;;;;16.30;4.07;;;;;;;;;;5060734;28;20514;-65
2021/09/28 00:03:42;;;;;;;10.50;4.20;;;;;;;;;;5057947;28;20291;-65
2021/09/28 00:06:08;;;;;;;8.27;3.97;;;;;;;;;;5060966;28;20555;-65
2021/09/28 00:08:36;;;;;;;8.93;4.20;;;;;;;;;;5061221;28;20139;-65
2021/09/28 00:11:03;;;;;;;11.88;4.68;;;;;;;;;;5058224;28;20135;-65
2021/09/28 00:13:29;;;;;;;6.07;3.78;;;;;;;;;;5059652;28;20139;-65
2021/09/28 00:15:56;;;;;;;7.80;4.25;;;;;;;;;;5061262;28;20552;-65
2021/09/28 00:18:24;;;;;;;5.70;3.60;;;;;;;;;;5061012;28;20049;-65
2021/09/28 00:20:50;;;;;;;7.32;4.18;;;;;;;;;;5060861;28;20464;-65
2021/09/28 00:23:18;;;;;;;9.70;4.05;;;;;;;;;;5062378;28;20461;-65
2021/09/28 00:25:45;;;;;;;7.65;4.22;;;;;;;;;;5067259;28;20180;-65
2021/09/28 00:28:11;;;;;;;9.40;4.40;;;;;;;;;;5065271;28;20049;-65
2021/09/28 00:30:38;;;;;;;8.10;4.00;;;;;;;;;;5060805;28;20149;-65
2021/09/28 00:33:04;;;;;;;8.93;4.55;;;;;;;;;;5055996;28;20886;-65
2021/09/28 00:35:31;;;;;;;9.80;4.70;;;;;;;;;;5066897;28;20500;-65
2021/09/28 00:37:57;;;;;;;8.35;3.83;;;;;;;;;;5062536;28;20072;-65
2021/09/28 00:40:24;;;;;;;7.55;3.50;;;;;;;;;;5064222;28;20131;-65
2021/09/28 00:42:50;;;;;;;11.02;4.18;;;;;;;;;;5056761;28;20087;-65
2021/09/28 00:45:17;;;;;;;5.45;3.65;;;;;;;;;;5055263;28;20136;-65
2021/09/28 00:47:44;;;;;;;5.93;3.33;;;;;;;;;;5064278;28;20132;-65
2021/09/28 00:50:10;;;;;;;5.72;3.40;;;;;;;;;;5061840;28;20516;-65
2021/09/28 00:52:37;;;;;;;6.57;3.90;;;;;;;;;;5061971;28;20556;-65
2021/09/28 00:55:04;;;;;;;6.90;3.30;;;;;;;;;;5064383;28;20441;-65
2021/09/28 00:57:31;;;;;;;8.77;4.53;;;;;;;;;;5059412;28;20452;-65
2021/09/28 00:59:58;;;;;;;6.93;3.70;;;;;;;;;;5066187;28;20152;-65
2021/09/28 01:02:25;;;;;;;8.63;3.70;;;;;;;;;;5062648;28;20047;-65
2021/09/28 01:04:51;;;;;;;8.75;4.18;;;;;;;;;;5062930;28;20075;-65
2021/09/28 01:07:18;;;;;;;7.53;3.65;;;;;;;;;;5059863;28;20397;-65
2021/09/28 01:09:45;;;;;;;6.78;3.90;;;;;;;;;;5065005;28;20755;-65
2021/09/28 01:12:11;;;;;;;6.60;3.67;;;;;;;;;;5057831;28;20140;-65
2021/09/28 01:14:38;;;;;;;5.38;3.70;;;;;;;;;;5065209;28;20065;-65
2021/09/28 01:17:15;;;;;;;8.02;3.70;;;;;;;;;;5062293;28;20140;-65
2021/09/28 01:19:43;;;;;;;9.15;3.97;;;;;;;;;;5062692;28;20095;-65
2021/09/28 01:22:10;;;;;;;8.95;4.22;;;;;;;;;;5060338;28;20488;-65
2021/09/28 01:24:37;;;;;;;;;;;;;;;;;;5060839;28;20144;-65
2021/09/28 01:27:03;;;;;;;11.20;4.85;;;;;;;;;;5060342;28;19964;-65
2021/09/28 01:29:31;;;;;;;17.38;4.90;;;;;;;;;;5062254;28;20190;-68
2021/09/28 01:31:57;;;;;;;14.52;4.82;;;;;;;;;;5062103;28;20135;-67
2021/09/28 01:34:25;;;;;;;7.93;4.80;;;;;;;;;;5058413;28;20072;-66
2021/09/28 01:36:51;;;;;;;10.07;4.88;;;;;;;;;;5060204;28;20051;-67
2021/09/28 01:39:19;;;;;;;12.38;4.80;;;;;;;;;;5061471;28;20465;-67
2021/09/28 01:41:46;;;;;;;9.73;4.60;;;;;;;;;;5058397;28;20132;-67
2021/09/28 01:44:15;;;;;;;11.82;4.90;;;;;;;;;;5057818;28;20143;-66
2021/09/28 01:46:42;;;;;;;15.15;5.18;;;;;;;;;;5054439;28;20128;-67
2021/09/28 01:49:10;;;;;;;9.07;4.35;;;;;;;;;;5062241;28;20053;-67
2021/09/28 01:51:37;;;;;;;10.07;4.45;;;;;;;;;;5059826;28;20077;-67
2021/09/28 01:54:04;;;;;;;8.75;4.40;;;;;;;;;;5059617;28;20565;-66
2021/09/28 01:56:31;;;;;;;8.48;4.50;;;;;;;;;;5061838;28;20492;-68
2021/09/28 01:58:58;;;;;;;7.72;4.20;;;;;;;;;;5060477;28;20508;-67
2021/09/28 02:01:24;;;;;;;12.63;4.13;;;;;;;;;;5057629;28;20171;-67
2021/09/28 02:03:56;;;;;;;6.18;4.32;;;;;;;;;;5056704;28;20078;-67
2021/09/28 02:06:22;;;;;;;8.77;4.22;;;;;;;;;;5041852;28;20083;-67
2021/09/28 02:08:50;;;;;;;6.15;3.60;;;;;;;;;;5061445;28;20127;-67
2021/09/28 02:11:16;;;;;;;;;;;;;;;;;;5060183;28;20211;-67
2021/09/28 02:13:43;;;;;;;7.25;4.22;;;;;;;;;;5063892;28;19928;-67
2021/09/28 02:16:09;;;;;;;8.15;4.00;;;;;;;;;;5057249;28;20128;-67
2021/09/28 02:18:36;;;;;;;4.88;3.72;;;;;;;;;;5059603;28;20075;-66
2021/09/28 02:21:03;;;;;;;8.48;4.03;;;;;;;;;;5062096;28;20048;-66
2021/09/28 02:23:29;;;;;;;10.07;3.95;;;;;;;;;;5058559;28;20485;-66
2021/09/28 02:26:00;;;;;;;9.73;3.80;;;;;;;;;;5065762;28;20101;-66
2021/09/28 02:28:26;;;;;;;5.97;3.50;;;;;;;;;;5058575;28;20083;-66
2021/09/28 02:30:53;;;;;;;9.15;3.58;;;;;;;;;;5058620;28;20143;-67
2021/09/28 02:33:19;;;;;;;6.72;3.67;;;;;;;;;;5061174;28;20041;-67
2021/09/28 02:35:46;;;;;;;7.93;3.47;;;;;;;;;;5067331;28;20258;-66
2021/09/28 02:38:12;;;;;;;5.95;3.05;;;;;;;;;;5059490;28;20068;-66
2021/09/28 02:40:39;;;;;;;4.73;3.30;;;;;;;;;;5057440;28;20132;-66
2021/09/28 02:43:06;;;;;;;4.13;2.83;;;;;;;;;;5057801;28;20073;-66
2021/09/28 02:45:32;;;;;;;4.93;3.50;;;;;;;;;;5057948;28;20135;-66
2021/09/28 02:47:59;;;;;;;4.37;3.00;;;;;;;;;;5063993;28;20075;-66
2021/09/28 02:50:33;;;;;;;6.85;3.40;;;;;;;;;;5066146;28;20040;-66
2021/09/28 02:53:01;;;;;;;4.65;3.00;;;;;;;;;;5057333;28;20072;-66
2021/09/28 02:55:28;;;;;;;5.55;3.05;;;;;;;;;;5060828;28;20072;-65
2021/09/28 02:57:54;;;;;;;6.88;3.10;;;;;;;;;;5057149;28;20087;-65
2021/09/28 03:00:21;;;;;;;7.50;3.37;;;;;;;;;;5054682;28;20132;-65
2021/09/28 03:02:47;;;;;;;9.20;3.45;;;;;;;;;;5038505;28;20072;-65
2021/09/28 03:05:14;;;;;;;5.10;2.85;;;;;;;;;;5063438;28;20087;-65
2021/09/28 03:07:41;;;;;;;6.47;3.60;;;;;;;;;;5060570;28;20049;-65
2021/09/28 03:10:08;;;;;;;7.32;3.17;;;;;;;;;;5053340;28;20053;-65
2021/09/28 03:12:34;;;;;;;3.42;2.90;;;;;;;;;;5056970;28;20049;-65
2021/09/28 03:15:01;;;;;;;6.65;3.22;;;;;;;;;;5058321;28;20136;-65
2021/09/28 03:17:27;;;;;;;4.60;3.35;;;;;;;;;;5055330;28;20041;-65
2021/09/28 03:19:54;;;;;;;4.28;3.05;;;;;;;;;;5064439;28;20139;-65
2021/09/28 03:22:21;;;;;;;4.55;3.10;;;;;;;;;;5060232;28;20128;-65
2021/09/28 03:24:47;;;;;;;8.43;3.13;;;;;;;;;;5056787;28;20157;-65
2021/09/28 03:27:13;;;;;;;4.70;2.78;;;;;;;;;;5060345;28;20143;-65
2021/09/28 03:29:40;;;;;;;3.63;2.73;;;;;;;;;;5066138;28;20072;-65
2021/09/28 03:32:07;;;;;;;6.20;3.10;;;;;;;;;;5056990;28;20135;-65
2021/09/28 03:34:33;;;;;;;3.47;2.58;;;;;;;;;;5065244;28;20127;-65
2021/09/28 03:37:01;;;;;;;;;;;;;;;;;;5060950;28;20139;-65
2021/09/28 03:39:27;;;;;;;3.95;2.65;;;;;;;;;;5056271;28;19978;-66
2021/09/28 03:41:53;;;;;;;3.67;2.83;;;;;;;;;;5055918;28;20132;-65
2021/09/28 03:44:20;;;;;;;3.72;2.53;;;;;;;;;;5061763;28;20480;-65
2021/09/28 03:46:46;;;;;;;3.78;2.72;;;;;;;;;;5055432;28;20561;-65
2021/09/28 03:49:13;;;;;;;4.38;2.63;;;;;;;;;;5063033;28;20168;-65
2021/09/28 03:51:39;;;;;;;3.85;2.88;;;;;;;;;;5059375;28;20135;-65
2021/09/28 03:54:06;;;;;;;5.43;2.80;;;;;;;;;;5061099;28;20123;-66
2021/09/28 03:56:32;;;;;;;3.75;2.70;;;;;;;;;;5056887;28;20099;-66
2021/09/28 03:59:00;;;;;;;4.43;2.45;;;;;;;;;;5061196;28;20564;-66
2021/09/28 04:01:26;;;;;;;5.53;2.47;;;;;;;;;;5062633;28;20136;-66
2021/09/28 04:03:53;;;;;;;6.87;2.63;;;;;;;;;;5059557;28;20083;-66
2021/09/28 04:06:20;;;;;;;6.03;2.70;;;;;;;;;;5067234;28;20128;-67
2021/09/28 04:08:46;;;;;;;14.13;3.35;;;;;;;;;;5058518;28;20076;-66
2021/09/28 04:11:12;;;;;;;4.53;2.78;;;;;;;;;;5061951;28;20179;-67
2021/09/28 04:13:43;;;;;;;5.53;2.60;;;;;;;;;;5061860;28;20091;-67
2021/09/28 04:16:10;;;;;;;4.85;2.80;;;;;;;;;;5060509;28;20075;-66
2021/09/28 04:18:37;;;;;;;5.20;2.50;;;;;;;;;;5062515;28;20056;-67
2021/09/28 04:21:03;;;;;;;2.75;2.00;;;;;;;;;;5059603;28;20041;-66
2021/09/28 04:23:33;;;;;;;3.70;2.40;;;;;;;;;;5058278;28;20056;-66
2021/09/28 04:25:59;;;;;;;3.83;2.38;;;;;;;;;;5070286;28;20136;-67
2021/09/28 04:28:26;;;;;;;3.47;2.40;;;;;;;;;;5063628;28;20076;-67
2021/09/28 04:30:52;;;;;;;2.78;2.50;;;;;;;;;;5059271;28;20795;-67
2021/09/28 04:33:19;;;;;;;2.53;2.15;;;;;;;;;;5065163;28;20136;-67
2021/09/28 04:35:45;;;;;;;3.67;2.13;;;;;;;;;;5062498;28;20135;-66
2021/09/28 04:38:12;;;;;;;4.28;2.38;;;;;;;;;;5062628;28;20045;-66
2021/09/28 04:40:39;;;;;;;3.35;2.45;;;;;;;;;;5065540;28;20084;-67
2021/09/28 04:43:05;;;;;;;3.60;2.90;;;;;;;;;;5059482;28;20055;-67
2021/09/28 04:45:31;;;;;;;3.92;2.30;;;;;;;;;;5062672;28;20144;-67
2021/09/28 04:47:58;;;;;;;3.67;2.33;;;;;;;;;;5063081;28;20044;-67
2021/09/28 04:50:25;;;;;;;7.18;2.80;;;;;;;;;;5062082;28;20136;-67
2021/09/28 04:52:51;;;;;;;4.45;2.65;;;;;;;;;;5061762;28;20048;-66
2021/09/28 04:55:18;;;;;;;4.47;2.65;;;;;;;;;;5058269;28;20083;-66
2021/09/28 04:57:44;;;;;;;3.00;2.33;;;;;;;;;;5066419;28;20135;-66
2021/09/28 05:00:11;;;;;;;4.43;2.30;;;;;;;;;;5061871;28;20131;-66
2021/09/28 05:02:37;;;;;;;6.22;2.83;;;;;;;;;;5059829;28;20059;-66
2021/09/28 05:05:05;;;;;;;7.55;2.47;;;;;;;;;;5060172;28;20053;-65
2021/09/28 05:07:31;;;;;;;5.68;3.22;;;;;;;;;;5059374;28;20144;-66
2021/09/28 05:09:58;;;;;;;20.85;3.75;;;;;;;;;;5065879;28;20567;-66
2021/09/28 05:12:24;;;;;;;5.70;3.10;;;;;;;;;;5052677;28;20140;-66
2021/09/28 05:14:51;;;;;;;8.95;2.85;;;;;;;;;;5056051;28;20052;-66
2021/09/28 05:17:17;;;;;;;4.78;3.30;;;;;;;;;;5062166;28;20052;-66
2021/09/28 05:19:44;;;;;;;9.20;3.15;;;;;;;;;;5061582;28;20131;-66
2021/09/28 05:22:10;;;;;;;7.60;3.40;;;;;;;;;;5056330;28;20080;-66
2021/09/28 05:24:36;;;;;;;8.30;3.33;;;;;;;;;;5060547;28;20262;-66
2021/09/28 05:27:03;;;;;;;7.95;3.50;;;;;;;;;;5057216;28;20140;-66
2021/09/28 05:29:30;;;;;;;7.78;3.13;;;;;;;;;;5065499;28;20479;-66
2021/09/28 05:31:57;;;;;;;4.90;3.00;;;;;;;;;;5061601;28;20131;-66
2021/09/28 05:34:24;;;;;;;6.43;3.40;;;;;;;;;;5062062;28;20124;-66
2021/09/28 05:36:51;;;;;;;7.22;3.60;;;;;;;;;;5063141;28;20098;-66
2021/09/28 05:39:19;;;;;;;8.50;3.83;;;;;;;;;;5061520;28;20072;-66
2021/09/28 05:41:46;;;;;;;6.82;3.55;;;;;;;;;;5062299;28;20080;-66
2021/09/28 05:44:12;;;;;;;8.63;3.72;;;;;;;;;;5060410;28;20079;-66
2021/09/28 05:46:39;;;;;;;17.88;4.68;;;;;;;;;;5061509;28;20144;-66
2021/09/28 05:49:05;;;;;;;18.50;4.55;;;;;;;;;;5062305;28;20139;-66
2021/09/28 05:51:33;;;;;;;10.18;4.35;;;;;;;;;;5060784;28;20079;-66
2021/09/28 05:54:01;;;;;;;;;;;;;;;;;;5060057;28;20053;-65
2021/09/28 05:56:28;;;;;;;8.50;4.05;;;;;;;;;;5063732;28;20019;-66
2021/09/28 05:58:57;;;;;;;9.10;4.07;;;;;;;;;;5059386;28;20076;-66
2021/09/28 06:01:23;;;;;;;9.18;3.92;;;;;;;;;;5059217;28;20144;-66
2021/09/28 06:03:50;;;;;;;13.57;4.18;;;;;;;;;;5057525;28;20452;-66
2021/09/28 06:06:18;;;;;;;7.65;4.30;;;;;;;;;;5064943;28;20044;-66
2021/09/28 06:08:45;;;;;;;10.15;3.90;;;;;;;;;;5059402;28;20128;-65
2021/09/28 06:11:11;;;;;;;9.63;3.88;;;;;;;;;;5060375;28;20052;-66
2021/09/28 06:13:38;;;;;;;11.65;4.03;;;;;;;;;;5061080;28;20492;-66
2021/09/28 06:16:04;;;;;;;10.60;4.40;;;;;;;;;;5059849;28;20528;-66
2021/09/28 06:18:31;;;;;;;8.18;3.97;;;;;;;;;;5056211;28;20052;-66
2021/09/28 06:20:57;;;;;;;9.32;4.05;;;;;;;;;;5060655;28;20088;-65
2021/09/28 06:23:24;;;;;;;10.63;4.88;;;;;;;;;;5061575;28;20132;-66
2021/09/28 06:25:50;;;;;;;5.82;3.22;;;;;;;;;;5060793;28;20131;-66
2021/09/28 06:28:18;;;;;;;9.32;3.70;;;;;;;;;;5058620;28;20072;-65
2021/09/28 06:30:45;;;;;;;11.63;4.25;;;;;;;;;;5064833;28;20091;-66
2021/09/28 06:33:12;;;;;;;11.85;4.25;;;;;;;;;;5060919;28;20054;-65
2021/09/28 06:35:39;;;;;;;8.40;4.00;;;;;;;;;;5057866;28;20043;-65
2021/09/28 06:38:06;;;;;;;10.90;3.75;;;;;;;;;;5065780;28;20151;-65
2021/09/28 06:40:34;;;;;;;9.85;3.58;;;;;;;;;;5060702;28;20052;-65
2021/09/28 06:43:01;;;;;;;14.30;3.70;;;;;;;;;;5057769;28;20048;-66
2021/09/28 06:45:27;;;;;;;13.70;3.50;;;;;;;;;;5055542;28;20536;-67
2021/09/28 06:47:55;;;;;;;;;;;;;;;;;;5048940;28;20057;-66
2021/09/28 06:50:21;;;;;;;8.43;3.58;;;;;;;;;;5041840;28;20031;-66
2021/09/28 06:52:49;;;;;;;12.77;3.92;;;;;;;;;;5038360;28;20083;-66
2021/09/28 06:55:16;;;;;;;15.20;3.65;;;;;;;;;;5044024;28;20086;-66
2021/09/28 06:57:42;;;;;;;14.27;3.88;;;;;;;;;;5038390;28;20132;-65
2021/09/28 07:00:09;;;;;;;10.98;3.45;;;;;;;;;;5040909;28;20076;-66
2021/09/28 07:02:36;;;;;;;12.18;3.05;;;;;;;;;;5038758;28;20092;-65
2021/09/28 07:05:03;;;;;;;15.90;4.00;;;;;;;;;;5039494;28;20052;-65
2021/09/28 07:07:29;;;;;;;7.75;2.90;;;;;;;;;;5041335;28;20080;-65
2021/09/28 07:09:57;;;;;;;18.73;3.80;;;;;;;;;;5038878;28;20577;-65
2021/09/28 07:12:24;;;;;;;11.32;2.80;;;;;;;;;;5034062;28;20534;-65
2021/09/28 07:14:50;;;;;;;19.02;4.15;;;;;;;;;;5038349;28;20144;-65
2021/09/28 07:17:18;;;;;;;;;;;;;;;;;;5041991;28;20099;-65
2021/09/28 07:19:44;;;;;;;21.30;4.05;;;;;;;;;;5038039;28;19921;-65
2021/09/28 07:22:11;;;;;;;10.50;3.67;;;;;;;;;;5042398;28;20461;-65
2021/09/28 07:24:39;;;;;;;18.63;3.63;;;;;;;;;;5039195;28;20132;-65
2021/09/28 07:27:05;;;;;;;;;;;;;;;;;;5040535;28;20492;-65
2021/09/28 07:29:32;;;;;;;15.07;3.60;;;;;;;;;;5041340;28;19987;-65
2021/09/28 07:32:00;;;;;;;14.18;3.20;;;;;;;;;;5042713;28;20060;-65
2021/09/28 07:34:26;;;;;;;12.63;3.60;;;;;;;;;;5040524;28;20041;-65
2021/09/28 07:36:53;;;;;;;9.75;3.03;;;;;;;;;;5039306;28;20099;-65
2021/09/28 07:39:20;;;;;;;19.10;3.85;;;;;;;;;;5042407;28;20099;-65
2021/09/28 07:41:46;;;;;;;18.63;4.22;;;;;;;;;;5040947;28;20667;-65
2021/09/28 07:44:13;;;;;;;12.75;3.20;;;;;;;;;;5042690;28;20505;-65
2021/09/28 07:46:40;;;;;;;14.07;3.25;;;;;;;;;;5060579;28;20061;-65
2021/09/28 07:49:06;;;;;;;20.05;3.60;;;;;;;;;;5064217;28;20420;-64
2021/09/28 07:51:33;;;;;;;15.32;3.45;;;;;;;;;;5059512;28;20812;-65
2021/09/28 07:54:01;;;;;;;13.70;3.53;;;;;;;;;;5058945;28;20064;-65
2021/09/28 07:56:28;;;;;;;18.13;3.40;;;;;;;;;;5058188;28;20517;-65
2021/09/28 07:58:59;;;;;;;21.52;3.72;;;;;;;;;;5056932;28;20447;-65
2021/09/28 08:01:27;;;;;;;17.67;3.70;;;;;;;;;;5055925;28;20091;-65
2021/09/28 08:03:53;;;;;;;23.58;3.90;;;;;;;;;;5059618;28;20048;-65
2021/09/28 08:06:20;;;;;;;14.05;3.40;;;;;;;;;;5057853;28;20049;-65
2021/09/28 08:08:46;;;;;;;26.55;3.97;;;;;;;;;;5066553;28;20133;-65
2021/09/28 08:11:13;;;;;;;12.55;3.25;;;;;;;;;;5060835;28;20041;-65
2021/09/28 08:13:40;;;;;;;20.20;3.55;;;;;;;;;;5059985;28;20136;-65
2021/09/28 08:16:07;;;;;;;20.25;3.20;;;;;;;;;;5058787;28;20316;-65
2021/09/28 08:18:34;;;;;;;20.40;3.80;;;;;;;;;;5058128;28;20056;-65
2021/09/28 08:21:00;;;;;;;17.50;3.17;;;;;;;;;;5055785;28;20416;-65
2021/09/28 08:23:28;;;;;;;17.05;3.15;;;;;;;;;;5061736;28;20097;-65
2021/09/28 08:31:08;;;;;;;21.13;3.60;;;;;;;;;;5058567;28;20523;-65
2021/09/28 08:33:36;;;;;;;28.27;3.65;;;;;;;;;;5058878;28;20493;-65
2021/09/28 08:36:03;;;;;;;23.67;4.20;;;;;;;;;;5060584;28;20084;-65
2021/09/28 08:38:31;;;;;;;19.90;3.40;;;;;;;;;;5062801;28;20452;-65
2021/09/28 08:40:58;;;;;;;20.35;3.90;;;;;;;;;;5063181;28;20131;-65
2021/09/28 08:43:25;;;;;;;24.02;3.42;;;;;;;;;;5050166;28;20079;-65
2021/09/28 08:45:53;;;;;;;25.02;3.40;;;;;;;;;;5058144;28;20239;-65
2021/09/28 08:48:19;;;;;;;26.60;3.70;;;;;;;;;;5060336;28;20044;-65
2021/09/28 08:50:50;;;;;;;31.58;3.45;;;;;;;;;;5067987;28;20936;-65
2021/09/28 08:53:18;;;;;;;31.08;3.75;;;;;;;;;;5062351;28;20080;-65
2021/09/28 08:55:44;;;;;;;;;;;;;;;;;;5055957;28;20133;-65
2021/09/28 08:58:12;;;;;;;27.60;3.65;;;;;;;;;;5061887;28;19975;-65
2021/09/28 09:00:39;;;;;;;27.90;3.78;;;;;;;;;;5065871;28;20083;-65
2021/09/28 09:03:05;;;;;;;25.73;3.83;;;;;;;;;;5062127;28;20139;-65
2021/09/28 09:05:32;;;;;;;26.33;3.38;;;;;;;;;;5059472;28;20048;-65
2021/09/28 09:08:05;;;;;;;22.90;4.07;;;;;;;;;;5061998;28;20098;-65
2021/09/28 09:10:33;;;;;;;31.35;3.75;;;;;;;;;;5060362;28;20648;-65
2021/09/28 09:13:03;;;;;;;33.45;3.78;;;;;;;;;;5061596;28;20076;-66
2021/09/28 09:15:33;;;;;;;31.38;3.55;;;;;;;;;;5061999;28;20124;-66
2021/09/28 09:18:01;;;;;;;29.23;3.50;;;;;;;;;;5059267;28;20557;-66
2021/09/28 09:20:30;;;;;;;21.40;3.75;;;;;;;;;;5062452;28;20539;-66
2021/09/28 09:23:12;;;;;;;19.33;2.95;;;;;;;;;;5055937;28;20089;-65
2021/09/28 09:25:39;;;;;;;34.88;4.40;;;;;;;;;;5064607;28;20127;-66
2021/09/28 09:28:19;;;;;;;28.13;4.17;;;;;;;;;;5065888;28;20056;-66
2021/09/28 09:30:46;;;;;;;28.05;3.60;;;;;;;;;;5061043;28;20278;-66
2021/09/28 09:33:13;;;;;;;27.05;4.18;;;;;;;;;;5061990;28;20133;-66
2021/09/28 09:35:40;;;;;;;33.33;4.32;;;;;;;;;;5060350;28;20578;-65
2021/09/28 09:38:11;;;;;;;25.95;3.67;;;;;;;;;;5058561;28;20581;-66
2021/09/28 09:40:39;;;;;;;29.65;3.42;;;;;;;;;;5060435;28;20081;-66
2021/09/28 09:43:05;;;;;;;23.95;3.10;;;;;;;;;;5058366;28;20068;-66
2021/09/28 09:45:32;;;;;;;24.30;3.28;;;;;;;;;;5064623;28;20094;-65
2021/09/28 09:47:59;;;;;;;29.07;3.17;;;;;;;;;;5059962;28;20095;-66
2021/09/28 09:50:31;;;;;;;40.50;4.55;;;;;;;;;;5065485;28;20052;-66
2021/09/28 09:52:58;;;;;;;25.52;3.17;;;;;;;;;;5065480;28;20144;-66
2021/09/28 09:55:25;;;;;;;26.55;3.47;;;;;;;;;;5059950;28;20083;-66
2021/09/28 09:57:52;;;;;;;22.95;4.10;;;;;;;;;;5061562;28;20079;-66
2021/09/28 10:00:20;;;;;;;26.23;3.03;;;;;;;;;;5056462;28;20076;-66
2021/09/28 10:02:46;;;;;;;26.73;3.22;;;;;;;;;;5066435;28;20159;-66
2021/09/28 10:05:13;;;;;;;25.52;3.42;;;;;;;;;;5057016;28;20567;-66
2021/09/28 10:07:41;;;;;;;17.10;2.90;;;;;;;;;;5061808;28;20135;-66
2021/09/28 10:10:10;;;;;;;23.27;3.67;;;;;;;;;;5061425;28;20053;-66
2021/09/28 10:12:37;;;;;;;14.48;2.70;;;;;;;;;;5063680;28;20049;-66
2021/09/28 10:15:08;;;;;;;18.95;3.17;;;;;;;;;;5063123;28;20107;-66
2021/09/28 10:17:39;;;;;;;14.75;2.75;;;;;;;;;;5064277;28;20106;-65
2021/09/28 10:20:21;;;;;;;23.60;3.33;;;;;;;;;;5055782;28;20073;-65
2021/09/28 10:22:49;;;;;;;19.98;2.63;;;;;;;;;;5060352;28;20135;-65
2021/09/28 10:25:19;;;;;;;33.83;3.50;;;;;;;;;;5058342;28;20140;-66
2021/09/28 10:27:48;;;;;;;19.23;2.97;;;;;;;;;;5055959;28;20489;-65
2021/09/28 10:30:42;;;;;;;16.38;2.80;;;;;;;;;;5059003;28;20140;-66
2021/09/28 10:33:11;;;;;;;21.60;2.97;;;;;;;;;;5063984;28;20147;-66
2021/09/28 10:36:07;;;;;;;20.13;3.00;;;;;;;;;;5062622;28;20124;-66
2021/09/28 10:38:53;;;;;;;16.30;3.08;;;;;;;;;;5066082;28;20110;-65
2021/09/28 10:41:29;;;;;;;18.73;2.63;;;;;;;;;;5054666;28;20050;-65
2021/09/28 10:44:40;;;;;;;22.58;3.33;;;;;;;;;;5059140;28;20045;-65
2021/09/28 10:47:08;;;;;;;10.48;2.55;;;;;;;;;;4986913;28;20070;-65
2021/09/28 10:49:36;;;;;;;16.63;2.63;;;;;;;;;;4986732;28;20138;-66
2021/09/28 10:52:20;;;;;;;29.42;3.30;;;;;;;;;;5024126;28;20080;-65
2021/09/28 10:55:07;;;;;;;19.83;2.75;;;;;;;;;;5057121;28;20081;-65
2021/09/28 10:58:15;;;;;;;27.63;3.88;;;;;;;;;;5061797;28;20052;-65
2021/09/28 11:00:45;;;;;;;13.85;2.60;;;;;;;;;;5020799;28;20059;-65
2021/09/28 11:03:12;;;;;;;11.95;2.00;;;;;;;;;;5057106;28;20059;-65
2021/09/28 11:05:39;;;;;;;21.27;3.07;;;;;;;;;;5059587;28;20063;-65
2021/09/28 11:08:08;;;;;;;11.27;2.35;;;;;;;;;;5058089;28;20048;-65
2021/09/28 11:10:36;;;;;;;;;;;;;;;;;;5057584;28;20694;-65
2021/09/28 11:13:09;;;;;;;13.18;2.13;;;;;;;;;;5066412;28;20085;-65
2021/09/28 11:15:38;;;;;;;17.02;2.30;;;;;;;;;;5054452;28;20141;-65
2021/09/28 11:18:07;;;;;;;14.40;2.58;;;;;;;;;;5059987;28;20084;-65
2021/09/28 11:20:34;;;;;;;16.85;2.65;;;;;;;;;;5057574;28;20052;-65
2021/09/28 11:23:07;;;;;;;17.88;2.30;;;;;;;;;;5056191;28;20084;-65
2021/09/28 11:25:38;;;;;;;18.63;2.50;;;;;;;;;;5058024;28;20079;-65
2021/09/28 11:28:16;;;;;;;15.07;2.33;;;;;;;;;;5057708;28;20135;-65
2021/09/28 11:30:53;;;;;;;14.15;2.78;;;;;;;;;;5055746;28;20049;-64
2021/09/28 11:33:20;;;;;;;13.15;2.42;;;;;;;;;;5053677;28;20139;-64
2021/09/28 11:35:59;;;;;;;17.47;2.67;;;;;;;;;;5059878;28;20598;-64
2021/09/28 11:38:33;;;;;;;15.73;2.70;;;;;;;;;;5061891;28;20292;-65
2021/09/28 11:41:01;;;;;;;11.63;2.00;;;;;;;;;;5060383;28;20135;-64
2021/09/28 11:43:28;;;;;;;9.40;2.33;;;;;;;;;;5059307;28;20091;-65
2021/09/28 11:46:15;;;;;;;13.30;2.47;;;;;;;;;;5059325;28;20055;-64
2021/09/28 11:48:57;;;;;;;16.80;2.40;;;;;;;;;;5058546;28;20622;-65
2021/09/28 11:51:27;;;;;;;14.48;2.20;;;;;;;;;;5061926;28;20056;-64
2021/09/28 11:53:55;;;;;;;19.40;3.33;;;;;;;;;;5059289;28;20052;-64
2021/09/28 11:56:22;;;;;;;;;;;;;;;;;;5062868;28;20072;-64
2021/09/28 11:58:49;;;;;;;14.50;2.38;;;;;;;;;;5058265;28;19927;-64
2021/09/28 12:01:16;;;;;;;10.85;2.38;;;;;;;;;;5056708;28;20040;-64
2021/09/28 12:04:03;;;;;;;13.02;2.10;;;;;;;;;;5060488;28;20061;-64
2021/09/28 12:06:46;;;;;;;11.70;2.38;;;;;;;;;;5060775;28;20052;-64
2021/09/28 12:09:14;;;;;;;10.73;2.35;;;;;;;;;;5054938;28;20496;-64
2021/09/28 12:11:57;;;;;;;12.63;2.47;;;;;;;;;;5061661;28;20099;-64
2021/09/28 12:14:30;;;;;;;16.05;2.92;;;;;;;;;;5061091;28;20091;-64
2021/09/28 12:17:10;;;;;;;9.90;2.53;;;;;;;;;;5064463;28;20078;-64
2021/09/28 12:19:37;;;;;;;14.65;2.58;;;;;;;;;;5064746;28;20132;-63
2021/09/28 12:22:04;;;;;;;11.05;2.13;;;;;;;;;;5061947;28;20087;-63
2021/09/28 12:24:41;;;;;;;14.40;2.30;;;;;;;;;;5063052;28;20079;-63
2021/09/28 12:27:08;;;;;;;14.05;2.53;;;;;;;;;;5062244;28;20051;-63
2021/09/28 12:29:45;;;;;;;20.40;3.10;;;;;;;;;;5061222;28;20124;-64
2021/09/28 12:32:21;;;;;;;11.15;2.30;;;;;;;;;;5065603;28;20152;-64
2021/09/28 12:34:53;;;;;;;12.27;2.33;;;;;;;;;;5064414;28;20504;-63
2021/09/28 12:37:20;;;;;;;19.23;2.65;;;;;;;;;;5061067;28;20496;-63
2021/09/28 12:40:05;;;;;;;13.40;2.28;;;;;;;;;;5060474;28;20080;-63
2021/09/28 12:42:33;;;;;;;8.07;1.92;;;;;;;;;;5058884;28;20056;-63
2021/09/28 12:45:01;;;;;;;16.67;2.70;;;;;;;;;;5061037;28;20179;-64
2021/09/28 12:47:29;;;;;;;16.17;2.72;;;;;;;;;;5063591;28;20080;-63
2021/09/28 12:49:56;;;;;;;15.43;2.60;;;;;;;;;;5059266;28;20059;-63
2021/09/28 12:52:22;;;;;;;15.07;2.72;;;;;;;;;;5061318;28;20091;-63
2021/09/28 12:54:49;;;;;;;17.63;2.90;;;;;;;;;;5059193;28;20162;-63
2021/09/28 12:57:15;;;;;;;12.43;2.40;;;;;;;;;;5067429;28;20104;-63
2021/09/28 12:59:42;;;;;;;10.60;2.08;;;;;;;;;;5061928;28;20052;-63
2021/09/28 13:02:09;;;;;;;14.43;2.10;;;;;;;;;;5060576;28;20111;-64
2021/09/28 13:04:36;;;;;;;18.25;2.70;;;;;;;;;;5065453;28;20360;-63
2021/09/28 13:07:08;;;;;;;15.48;2.55;;;;;;;;;;5062847;28;20124;-63
2021/09/28 13:09:34;;;;;;;11.75;2.03;;;;;;;;;;5060218;28;20045;-63
2021/09/28 13:12:01;;;;;;;13.48;2.67;;;;;;;;;;5057733;28;20056;-63
2021/09/28 13:14:28;;;;;;;11.32;2.63;;;;;;;;;;5061925;28;20076;-63
2021/09/28 13:16:58;;;;;;;17.63;2.45;;;;;;;;;;5062578;28;20084;-63
2021/09/28 13:19:24;;;;;;;10.82;2.17;;;;;;;;;;5061499;28;20076;-63
2021/09/28 13:21:51;;;;;;;16.83;2.17;;;;;;;;;;5058628;28;20092;-63
2021/09/28 13:24:17;;;;;;;17.30;2.97;;;;;;;;;;5061611;28;20489;-63
2021/09/28 13:26:46;;;;;;;16.58;2.83;;;;;;;;;;5063215;28;20091;-63
2021/09/28 13:29:14;;;;;;;14.00;2.10;;;;;;;;;;5064258;28;20483;-63
2021/09/28 13:31:41;;;;;;;11.98;2.22;;;;;;;;;;5064968;28;20099;-63
2021/09/28 13:34:08;;;;;;;;;;;;;;;;;;5060875;28;20508;-63
2021/09/28 13:36:35;;;;;;;15.18;2.17;;;;;;;;;;5058829;28;20094;-63
2021/09/28 13:39:04;;;;;;;14.40;2.10;;;;;;;;;;5059322;28;20475;-63
2021/09/28 13:41:31;;;;;;;13.50;2.10;;;;;;;;;;5069101;28;20084;-63
2021/09/28 13:43:57;;;;;;;17.70;2.38;;;;;;;;;;5062130;28;20139;-63
2021/09/28 13:46:24;;;;;;;14.30;3.10;;;;;;;;;;5068129;28;20048;-63
2021/09/28 13:48:51;;;;;;;16.33;2.40;;;;;;;;;;5064072;28;20071;-63
2021/09/28 13:51:18;;;;;;;12.63;2.13;;;;;;;;;;5058475;28;20072;-63
2021/09/28 13:53:44;;;;;;;12.48;2.92;;;;;;;;;;5060705;28;20458;-63
2021/09/28 13:56:11;;;;;;;14.10;2.22;;;;;;;;;;5048810;28;20083;-63
2021/09/28 13:58:55;;;;;;;11.38;2.38;;;;;;;;;;5062051;28;20056;-62
2021/09/28 14:01:23;;;;;;;;;;;;;;;;;;5066153;28;20413;-63
2021/09/28 14:03:49;;;;;;;12.52;2.58;;;;;;;;;;5062593;28;20011;-62
2021/09/28 14:06:18;;;;;;;12.52;2.63;;;;;;;;;;5059323;28;20146;-62
2021/09/28 14:08:45;;;;;;;11.70;2.67;;;;;;;;;;5059159;28;20052;-62
2021/09/28 14:11:12;;;;;;;9.90;1.98;;;;;;;;;;5059116;28;20083;-62
2021/09/28 14:13:39;;;;;;;12.00;2.30;;;;;;;;;;5063699;28;20503;-62
2021/09/28 14:16:05;;;;;;;10.75;1.92;;;;;;;;;;5066825;28;20492;-63
2021/09/28 14:18:32;;;;;;;11.82;2.58;;;;;;;;;;5065301;28;20057;-62
2021/09/28 14:20:59;;;;;;;13.85;2.05;;;;;;;;;;5066945;28;20051;-62
2021/09/28 14:23:26;;;;;;;9.38;1.85;;;;;;;;;;5065492;28;20076;-62
2021/09/28 14:25:54;;;;;;;15.10;2.07;;;;;;;;;;5066821;28;20101;-62
2021/09/28 14:28:20;;;;;;;13.32;2.08;;;;;;;;;;5060914;28;20476;-62
2021/09/28 14:30:50;;;;;;;14.57;2.40;;;;;;;;;;5064090;28;20127;-62
2021/09/28 14:33:18;;;;;;;16.17;2.35;;;;;;;;;;5066245;28;20053;-62
2021/09/28 14:35:44;;;;;;;13.75;2.50;;;;;;;;;;5065016;28;20056;-62
2021/09/28 14:38:11;;;;;;;16.93;3.10;;;;;;;;;;5064996;28;20060;-62
2021/09/28 14:40:37;;;;;;;10.30;2.17;;;;;;;;;;5064686;28;20048;-62
2021/09/28 14:43:06;;;;;;;10.68;1.95;;;;;;;;;;5062743;28;20049;-63
2021/09/28 14:45:34;;;;;;;20.92;2.85;;;;;;;;;;5064706;28;20048;-62
2021/09/28 14:48:04;;;;;;;15.30;2.55;;;;;;;;;;5067380;28;20074;-62
2021/09/28 14:50:31;;;;;;;16.30;2.30;;;;;;;;;;5064396;28;20500;-63